createdAt,value
2019-05-25T00:01:47.784Z,60.32
2019-05-25T00:04:16.883Z,60.63
2019-05-25T00:06:46.020Z,60.78
2019-05-25T00:09:15.182Z,60.69
2019-05-25T00:11:44.457Z,60.67
2019-05-25T00:14:13.582Z,60.61
2019-05-25T00:16:42.772Z,60.61
2019-05-25T00:19:11.923Z,60.66
2019-05-25T00:21:41.066Z,60.67
2019-05-25T00:24:12.571Z,60.85
2019-05-25T00:26:41.126Z,60.88
2019-05-25T00:29:10.276Z,60.84
2019-05-25T00:31:39.425Z,60.87
2019-05-25T00:34:08.571Z,61.02
2019-05-25T00:36:37.720Z,61.12
2019-05-25T00:39:08.023Z,61.26
2019-05-25T00:41:37.231Z,61.34
2019-05-25T00:44:06.355Z,61.34
2019-05-25T00:46:35.478Z,61.42
2019-05-25T00:49:04.757Z,61.49
2019-05-25T00:51:33.964Z,61.61
2019-05-25T00:54:03.155Z,61.77
2019-05-25T00:56:32.276Z,61.98
2019-05-25T00:59:01.415Z,62.02
2019-05-25T01:01:30.563Z,62.04
2019-05-25T01:03:59.707Z,62.17
2019-05-25T01:06:28.849Z,62.26
2019-05-25T01:08:57.994Z,62.47
2019-05-25T01:11:27.137Z,62.50
2019-05-25T01:13:56.312Z,62.35
2019-05-25T01:16:25.459Z,62.45
2019-05-25T01:18:54.591Z,62.65
2019-05-25T01:21:23.747Z,62.73
2019-05-25T01:23:52.885Z,62.58
2019-05-25T01:26:22.032Z,62.50
2019-05-25T01:28:51.190Z,62.50
2019-05-25T01:31:20.364Z,62.60
2019-05-25T01:33:49.481Z,62.57
2019-05-25T01:36:18.631Z,62.50
2019-05-25T01:38:47.772Z,62.54
2019-05-25T01:41:16.907Z,62.61
2019-05-25T01:43:46.067Z,62.72
2019-05-25T01:46:15.184Z,62.89
2019-05-25T01:48:44.337Z,63.24
2019-05-25T01:51:13.501Z,63.35
2019-05-25T01:53:42.628Z,63.60
2019-05-25T01:56:11.770Z,63.53
2019-05-25T01:58:40.934Z,63.54
2019-05-25T02:01:10.069Z,63.71
2019-05-25T02:03:39.212Z,64.04
2019-05-25T02:06:08.379Z,64.20
2019-05-25T02:08:37.559Z,64.21
2019-05-25T02:11:06.703Z,64.29
2019-05-25T02:13:35.861Z,64.49
2019-05-25T02:16:05.210Z,64.59
2019-05-25T02:18:34.351Z,65.04
2019-05-25T02:21:03.484Z,65.00
2019-05-25T02:23:32.594Z,65.13
2019-05-25T02:26:01.803Z,65.21
2019-05-25T02:28:30.984Z,65.13
2019-05-25T02:31:00.177Z,65.06
2019-05-25T02:33:29.293Z,65.11
2019-05-25T02:35:58.440Z,65.23
2019-05-25T02:38:27.557Z,65.52
2019-05-25T02:40:57.272Z,65.57
2019-05-25T02:43:26.401Z,65.62
2019-05-25T02:45:55.582Z,65.71
2019-05-25T02:48:24.729Z,65.72
2019-05-25T02:50:53.887Z,65.83
2019-05-25T02:53:23.040Z,65.85
2019-05-25T02:55:52.184Z,65.81
2019-05-25T02:58:21.335Z,65.83
2019-05-25T03:00:50.470Z,65.87
2019-05-25T03:03:19.640Z,66.01
2019-05-25T03:05:50.486Z,66.01
2019-05-25T03:08:19.667Z,65.97
2019-05-25T03:10:50.055Z,65.87
2019-05-25T03:13:19.842Z,65.70
2019-05-25T03:15:49.112Z,65.77
2019-05-25T03:18:18.284Z,65.64
2019-05-25T03:20:47.422Z,65.73
2019-05-25T03:23:16.576Z,65.81
2019-05-25T03:25:49.654Z,65.87
2019-05-25T03:28:16.618Z,65.98
2019-05-25T03:30:45.763Z,66.21
2019-05-25T03:33:14.914Z,66.40
2019-05-25T03:35:44.134Z,66.45
2019-05-25T03:38:13.303Z,66.56
2019-05-25T03:40:42.456Z,66.58
2019-05-25T03:43:11.580Z,66.55
2019-05-25T03:45:40.723Z,66.69
2019-05-25T03:48:09.841Z,66.86
2019-05-25T03:50:38.959Z,67.07
2019-05-25T03:53:08.090Z,67.10
2019-05-25T03:55:37.217Z,67.24
2019-05-25T03:58:06.355Z,67.17
2019-05-25T04:00:36.908Z,66.99
2019-05-25T04:03:26.743Z,67.25
2019-05-25T04:05:55.905Z,67.22
2019-05-25T04:08:25.035Z,67.27
2019-05-25T04:10:54.208Z,67.36
2019-05-25T04:13:23.374Z,67.29
2019-05-25T04:15:52.563Z,67.30
2019-05-25T04:18:21.721Z,67.12
2019-05-25T04:20:50.803Z,66.97
2019-05-25T04:23:19.983Z,66.80
2019-05-25T04:25:49.131Z,66.64
2019-05-25T04:28:18.352Z,66.42
2019-05-25T04:30:47.557Z,66.18
2019-05-25T04:33:16.700Z,65.96
2019-05-25T04:35:45.839Z,65.91
2019-05-25T04:38:14.997Z,65.96
2019-05-25T04:40:44.125Z,66.06
2019-05-25T04:43:13.279Z,65.99
2019-05-25T04:45:42.409Z,65.73
2019-05-25T04:48:11.539Z,65.66
2019-05-25T04:50:40.658Z,65.37
2019-05-25T04:53:09.802Z,64.96
2019-05-25T04:55:38.918Z,65.00
2019-05-25T04:58:08.113Z,64.56
2019-05-25T05:00:37.269Z,64.16
2019-05-25T05:03:06.402Z,63.86
2019-05-25T05:05:35.613Z,63.63
2019-05-25T05:08:04.789Z,63.57
2019-05-25T05:10:33.968Z,63.56
2019-05-25T05:13:03.115Z,63.32
2019-05-25T05:15:32.277Z,63.26
2019-05-25T05:18:01.419Z,63.19
2019-05-25T05:20:30.555Z,63.18
2019-05-25T05:22:59.737Z,63.06
2019-05-25T05:25:28.975Z,62.98
2019-05-25T05:27:58.101Z,62.81
2019-05-25T05:30:34.064Z,62.56
2019-05-25T05:33:03.543Z,62.51
2019-05-25T05:35:38.590Z,62.46
2019-05-25T05:38:09.082Z,62.26
2019-05-25T05:40:38.683Z,62.23
2019-05-25T05:43:12.149Z,62.34
2019-05-25T05:45:43.341Z,62.54
2019-05-25T05:48:13.750Z,62.04
2019-05-25T05:50:43.881Z,61.95
2019-05-25T05:53:13.156Z,62.21
2019-05-25T05:55:42.538Z,62.14
2019-05-25T05:58:11.930Z,61.91
2019-05-25T06:00:41.189Z,61.74
2019-05-25T06:03:10.450Z,61.60
2019-05-25T06:05:39.591Z,61.55
2019-05-25T06:08:08.724Z,61.29
2019-05-25T06:10:37.847Z,61.05
2019-05-25T06:13:07.060Z,60.92
2019-05-25T06:15:36.179Z,60.84
2019-05-25T06:18:05.507Z,60.72
2019-05-25T06:20:34.634Z,60.86
2019-05-25T06:23:07.662Z,60.57
2019-05-25T06:25:34.615Z,60.45
2019-05-25T06:28:03.750Z,60.00
2019-05-25T06:30:32.866Z,60.26
2019-05-25T06:33:01.961Z,60.28
2019-05-25T06:35:31.108Z,60.06
2019-05-25T06:38:00.229Z,60.17
2019-05-25T06:40:29.375Z,60.15
2019-05-25T06:42:58.506Z,60.07
2019-05-25T06:45:27.844Z,60.22
2019-05-25T06:47:56.952Z,60.28
2019-05-25T06:50:26.090Z,60.17
2019-05-25T06:52:57.863Z,60.12
2019-05-25T06:55:26.113Z,60.35
2019-05-25T06:57:55.195Z,60.13
2019-05-25T07:00:24.329Z,59.98
2019-05-25T07:02:53.453Z,60.06
2019-05-25T07:05:22.568Z,60.07
2019-05-25T07:07:54.482Z,60.27
2019-05-25T07:10:25.550Z,60.51
2019-05-25T07:12:55.178Z,60.39
2019-05-25T07:15:24.336Z,60.61
2019-05-25T07:17:53.452Z,60.46
2019-05-25T07:20:22.586Z,60.61
2019-05-25T07:22:51.737Z,60.60
2019-05-25T07:25:24.482Z,60.38
2019-05-25T07:27:59.527Z,60.65
2019-05-25T07:30:24.592Z,60.63
2019-05-25T07:32:53.703Z,60.34
2019-05-25T07:35:22.849Z,60.23
2019-05-25T07:37:51.990Z,60.14
2019-05-25T07:40:21.176Z,60.17
2019-05-25T07:42:50.305Z,59.97
2019-05-25T07:45:19.457Z,59.98
2019-05-25T07:47:48.631Z,60.14
2019-05-25T07:50:19.084Z,60.10
2019-05-25T07:52:48.212Z,60.04
2019-05-25T07:55:17.362Z,60.09
2019-05-25T07:57:46.501Z,60.11
2019-05-25T08:00:15.728Z,59.93
2019-05-25T08:02:44.858Z,59.85
2019-05-25T08:05:14.286Z,59.56
2019-05-25T08:07:43.394Z,59.48
2019-05-25T08:10:12.735Z,59.13
2019-05-25T08:12:41.857Z,59.33
2019-05-25T08:15:12.839Z,59.25
2019-05-25T08:17:41.956Z,59.10
2019-05-25T08:20:11.121Z,59.09
2019-05-25T08:22:40.340Z,59.07
2019-05-25T08:25:09.707Z,59.00
2019-05-25T08:27:38.861Z,59.01
2019-05-25T08:30:08.887Z,59.16
2019-05-25T08:32:38.110Z,59.22
2019-05-25T08:35:07.333Z,59.17
2019-05-25T08:37:36.666Z,59.58
2019-05-25T08:40:06.891Z,59.62
2019-05-25T08:42:36.061Z,59.19
2019-05-25T08:45:05.547Z,59.04
2019-05-25T08:47:34.807Z,58.86
2019-05-25T08:50:04.297Z,58.92
2019-05-25T08:52:33.438Z,58.39
2019-05-25T08:55:02.687Z,58.17
2019-05-25T08:57:31.891Z,57.87
2019-05-25T09:00:01.085Z,57.57
2019-05-25T09:02:30.177Z,57.50
2019-05-25T09:04:59.280Z,57.23
2019-05-25T09:07:28.435Z,57.00
2019-05-25T09:09:57.587Z,56.94
2019-05-25T09:12:26.709Z,56.76
2019-05-25T09:14:55.970Z,56.66
2019-05-25T09:17:25.225Z,56.43
2019-05-25T09:19:54.500Z,56.45
2019-05-25T09:22:23.655Z,56.44
2019-05-25T09:24:52.797Z,56.60
2019-05-25T09:27:21.935Z,56.61
2019-05-25T09:29:51.061Z,56.51
2019-05-25T09:32:20.259Z,56.64
2019-05-25T09:34:49.438Z,56.77
2019-05-25T09:37:18.556Z,56.36
2019-05-25T09:39:47.684Z,55.90
2019-05-25T09:42:16.900Z,55.33
2019-05-25T09:44:46.045Z,55.23
2019-05-25T09:47:15.192Z,55.45
2019-05-25T09:49:44.336Z,55.65
2019-05-25T09:52:13.473Z,54.83
2019-05-25T09:54:42.604Z,53.50
2019-05-25T09:57:11.756Z,53.29
2019-05-25T09:59:40.899Z,52.30
2019-05-25T10:02:10.057Z,52.97
2019-05-25T10:04:39.191Z,53.20
2019-05-25T10:07:08.322Z,52.96
2019-05-25T10:09:40.024Z,52.24
2019-05-25T10:12:08.351Z,52.83
2019-05-25T10:14:37.462Z,52.61
2019-05-25T10:17:06.622Z,51.74
2019-05-25T10:19:35.754Z,51.38
2019-05-25T10:22:05.188Z,51.89
2019-05-25T10:24:34.320Z,51.88
2019-05-25T10:27:03.623Z,51.26
2019-05-25T10:29:37.253Z,50.99
2019-05-25T10:32:03.624Z,50.95
2019-05-25T10:34:32.746Z,50.83
2019-05-25T10:37:01.880Z,50.39
2019-05-25T10:39:31.170Z,49.97
2019-05-25T10:42:00.306Z,49.74
2019-05-25T10:44:29.574Z,49.78
2019-05-25T10:47:01.131Z,49.82
2019-05-25T10:49:30.243Z,49.63
2019-05-25T10:51:59.410Z,49.29
2019-05-25T10:54:28.516Z,49.25
2019-05-25T10:56:57.634Z,49.33
2019-05-25T10:59:26.757Z,49.09
2019-05-25T11:01:55.891Z,49.21
2019-05-25T11:04:25.071Z,49.39
2019-05-25T11:06:54.267Z,49.59
2019-05-25T11:09:23.417Z,49.84
2019-05-25T11:11:52.567Z,49.52
2019-05-25T11:14:21.670Z,49.35
2019-05-25T11:16:50.810Z,49.57
2019-05-25T11:19:19.938Z,49.68
2019-05-25T11:21:49.062Z,49.96
2019-05-25T11:24:18.238Z,50.17
2019-05-25T11:26:47.343Z,49.89
2019-05-25T11:29:16.681Z,50.12
2019-05-25T11:31:54.403Z,50.13
2019-05-25T11:34:16.635Z,50.06
2019-05-25T11:36:45.766Z,49.70
2019-05-25T11:39:14.914Z,49.14
2019-05-25T11:41:44.072Z,48.46
2019-05-25T11:44:13.196Z,48.40
2019-05-25T11:46:42.326Z,47.97
2019-05-25T11:49:22.127Z,47.63
2019-05-25T11:51:42.295Z,47.81
2019-05-25T11:54:11.450Z,47.31
2019-05-25T11:56:40.594Z,46.99
2019-05-25T11:59:09.731Z,46.24
2019-05-25T12:01:38.870Z,46.39
2019-05-25T12:04:07.991Z,45.26
2019-05-25T12:06:37.096Z,44.72
2019-05-25T12:09:07.866Z,44.06
2019-05-25T12:11:37.010Z,43.74
2019-05-25T12:14:06.154Z,44.52
2019-05-25T12:16:35.329Z,44.57
2019-05-25T12:19:04.465Z,44.83
2019-05-25T12:21:33.723Z,44.71
2019-05-25T12:24:02.883Z,44.35
2019-05-25T12:26:32.035Z,43.47
2019-05-25T12:29:01.149Z,43.79
2019-05-25T12:31:30.338Z,43.51
2019-05-25T12:33:59.487Z,43.50
2019-05-25T12:36:28.607Z,44.29
2019-05-25T12:38:57.802Z,44.16
2019-05-25T12:41:26.942Z,43.98
2019-05-25T12:43:56.108Z,43.87
2019-05-25T12:46:25.293Z,43.74
2019-05-25T12:48:54.460Z,43.95
2019-05-25T12:51:23.599Z,43.27
2019-05-25T12:53:52.831Z,43.31
2019-05-25T12:56:21.989Z,43.78
2019-05-25T12:58:51.134Z,43.79
2019-05-25T13:01:20.297Z,43.72
2019-05-25T13:03:49.474Z,43.90
2019-05-25T13:06:18.668Z,43.72
2019-05-25T13:08:47.832Z,43.53
2019-05-25T13:11:17.019Z,43.43
2019-05-25T13:13:46.252Z,43.23
2019-05-25T13:16:15.457Z,43.60
2019-05-25T13:18:44.645Z,43.54
2019-05-25T13:21:13.784Z,43.49
2019-05-25T13:23:42.933Z,43.68
2019-05-25T13:26:12.052Z,44.12
2019-05-25T13:28:41.212Z,43.43
2019-05-25T13:31:12.036Z,43.74
2019-05-25T13:33:41.290Z,44.17
2019-05-25T13:36:10.531Z,44.18
2019-05-25T13:38:39.752Z,44.13
2019-05-25T13:41:08.903Z,43.66
2019-05-25T13:43:38.085Z,43.75
2019-05-25T13:46:07.244Z,43.51
2019-05-25T13:48:36.449Z,43.65
2019-05-25T13:51:05.663Z,43.39
2019-05-25T13:53:34.867Z,43.41
2019-05-25T13:56:03.998Z,43.64
2019-05-25T13:58:33.136Z,43.98
2019-05-25T14:01:02.269Z,43.88
2019-05-25T14:03:31.521Z,43.70
2019-05-25T14:06:00.705Z,43.52
2019-05-25T14:08:29.889Z,43.13
2019-05-25T14:10:59.071Z,43.10
2019-05-25T14:13:28.228Z,43.18
2019-05-25T14:16:06.562Z,43.48
2019-05-25T14:18:28.232Z,43.56
2019-05-25T14:20:57.512Z,43.40
2019-05-25T14:23:26.651Z,43.17
2019-05-25T14:25:55.818Z,43.35
2019-05-25T14:28:25.034Z,43.37
2019-05-25T14:30:54.260Z,43.18
2019-05-25T14:33:23.418Z,43.03
2019-05-25T14:35:52.547Z,43.01
2019-05-25T14:38:21.676Z,43.18
2019-05-25T14:40:50.808Z,42.89
2019-05-25T14:43:19.982Z,42.87
2019-05-25T14:45:53.233Z,42.61
2019-05-25T14:48:20.088Z,42.69
2019-05-25T14:50:49.285Z,42.46
2019-05-25T14:53:18.452Z,42.35
2019-05-25T14:55:47.619Z,42.34
2019-05-25T14:58:16.742Z,42.14
2019-05-25T15:00:46.006Z,42.27
2019-05-25T15:03:15.134Z,42.10
2019-05-25T15:05:44.284Z,42.12
2019-05-25T15:08:13.449Z,42.33
2019-05-25T15:10:42.617Z,42.21
2019-05-25T15:13:11.822Z,41.99
2019-05-25T15:15:40.964Z,42.14
2019-05-25T15:18:10.128Z,41.67
2019-05-25T15:20:39.340Z,41.97
2019-05-25T15:23:08.533Z,41.81
2019-05-25T15:25:37.736Z,41.96
2019-05-25T15:28:06.928Z,41.73
2019-05-25T15:30:36.226Z,42.00
2019-05-25T15:33:06.262Z,42.16
2019-05-25T15:35:35.363Z,41.66
2019-05-25T15:38:04.509Z,42.06
2019-05-25T15:40:33.690Z,42.47
2019-05-25T15:43:02.907Z,42.45
2019-05-25T15:45:32.127Z,42.31
2019-05-25T15:48:01.263Z,42.35
2019-05-25T15:50:30.453Z,42.54
2019-05-25T15:52:59.631Z,42.38
2019-05-25T15:55:28.819Z,42.23
2019-05-25T15:57:57.960Z,42.25
2019-05-25T16:00:46.939Z,42.45
2019-05-25T16:03:18.262Z,42.17
2019-05-25T16:05:47.841Z,42.49
2019-05-25T16:08:18.237Z,42.83
2019-05-25T16:10:47.676Z,42.93
2019-05-25T16:13:16.903Z,42.97
2019-05-25T16:15:46.042Z,43.26
2019-05-25T16:18:15.263Z,43.49
2019-05-25T16:20:44.377Z,43.62
2019-05-25T16:23:13.567Z,43.63
2019-05-25T16:25:42.785Z,44.08
2019-05-25T16:28:11.959Z,44.08
2019-05-25T16:30:41.116Z,44.50
2019-05-25T16:33:12.811Z,44.83
2019-05-25T16:35:41.123Z,44.71
2019-05-25T16:38:10.460Z,44.16
2019-05-25T16:40:39.557Z,44.14
2019-05-25T16:43:08.720Z,44.77
2019-05-25T16:45:40.022Z,44.57
2019-05-25T16:48:09.153Z,44.50
2019-05-25T16:50:38.296Z,44.60
2019-05-25T16:53:07.431Z,44.59
2019-05-25T16:55:36.571Z,44.62
2019-05-25T16:58:05.792Z,44.76
2019-05-25T17:00:34.944Z,45.05
2019-05-25T17:03:04.133Z,45.23
2019-05-25T17:05:33.299Z,45.27
2019-05-25T17:08:02.429Z,45.06
2019-05-25T17:10:31.629Z,45.34
2019-05-25T17:13:00.871Z,45.25
2019-05-25T17:15:29.987Z,44.93
2019-05-25T17:17:59.219Z,44.83
2019-05-25T17:20:28.384Z,45.22
2019-05-25T17:22:57.671Z,45.10
2019-05-25T17:25:28.385Z,44.96
2019-05-25T17:27:57.569Z,44.82
2019-05-25T17:30:58.223Z,44.81
2019-05-25T17:33:44.216Z,44.91
2019-05-25T17:35:58.253Z,44.86
2019-05-25T17:38:27.402Z,45.26
2019-05-25T17:40:56.526Z,45.26
2019-05-25T17:43:25.793Z,44.95
2019-05-25T17:45:54.973Z,44.98
2019-05-25T17:48:24.084Z,45.51
2019-05-25T17:50:53.268Z,45.59
2019-05-25T17:53:22.408Z,45.70
2019-05-25T17:55:51.579Z,45.81
2019-05-25T17:58:20.780Z,45.96
2019-05-25T18:00:50.852Z,46.06
2019-05-25T18:03:20.369Z,46.25
2019-05-25T18:05:49.632Z,46.55
2019-05-25T18:08:18.758Z,46.54
2019-05-25T18:10:55.127Z,46.51
2019-05-25T18:13:18.847Z,47.15
2019-05-25T18:15:48.121Z,48.06
2019-05-25T18:18:17.200Z,48.90
2019-05-25T18:20:46.429Z,49.58
2019-05-25T18:23:15.688Z,50.17
2019-05-25T18:25:44.856Z,50.66
2019-05-25T18:28:14.016Z,51.25
2019-05-25T18:30:43.152Z,51.68
2019-05-25T18:33:12.399Z,51.90
2019-05-25T18:35:41.558Z,52.24
2019-05-25T18:38:10.730Z,52.74
2019-05-25T18:40:39.864Z,52.92
2019-05-25T18:43:09.120Z,53.05
2019-05-25T18:45:38.280Z,52.97
2019-05-25T18:48:07.483Z,52.99
2019-05-25T18:50:36.647Z,53.35
2019-05-25T18:53:05.865Z,54.26
2019-05-25T18:55:35.000Z,55.08
2019-05-25T18:58:04.245Z,55.72
2019-05-25T19:00:33.439Z,55.87
2019-05-25T19:03:02.604Z,56.16
2019-05-25T19:05:31.803Z,56.40
2019-05-25T19:08:00.950Z,56.74
2019-05-25T19:10:30.332Z,57.19
2019-05-25T19:12:59.598Z,57.55
2019-05-25T19:15:28.733Z,57.76
2019-05-25T19:17:58.082Z,58.16
2019-05-25T19:20:27.239Z,58.24
2019-05-25T19:22:56.433Z,58.31
2019-05-25T19:25:25.558Z,58.36
2019-05-25T19:27:54.718Z,58.38
2019-05-25T19:30:23.859Z,58.46
2019-05-25T19:32:53.052Z,58.70
2019-05-25T19:35:22.308Z,59.05
2019-05-25T19:37:51.526Z,59.26
2019-05-25T19:40:20.685Z,59.55
2019-05-25T19:42:50.335Z,59.73
2019-05-25T19:45:22.010Z,59.92
2019-05-25T19:47:51.190Z,60.13
2019-05-25T19:50:20.546Z,60.33
2019-05-25T19:52:49.699Z,60.69
2019-05-25T19:55:18.867Z,60.87
2019-05-25T19:57:48.014Z,60.90
2019-05-25T20:00:17.462Z,60.86
2019-05-25T20:02:46.671Z,60.86
2019-05-25T20:05:17.634Z,60.86
2019-05-25T20:07:46.938Z,61.13
2019-05-25T20:10:16.536Z,61.34
2019-05-25T20:12:45.714Z,61.61
2019-05-25T20:15:15.569Z,61.77
2019-05-25T20:17:44.710Z,61.88
2019-05-25T20:20:14.736Z,62.00
2019-05-25T20:22:43.936Z,62.16
2019-05-25T20:25:13.396Z,62.32
2019-05-25T20:27:42.567Z,62.68
2019-05-25T20:30:11.845Z,62.87
2019-05-25T20:32:41.022Z,62.90
2019-05-25T20:35:10.189Z,62.75
2019-05-25T20:37:39.365Z,62.69
2019-05-25T20:40:09.520Z,62.79
2019-05-25T20:42:39.665Z,62.95
2019-05-25T20:45:09.432Z,62.94
2019-05-25T20:47:38.627Z,63.08
2019-05-25T20:50:08.451Z,63.10
2019-05-25T20:52:37.655Z,63.10
2019-05-25T20:55:07.663Z,63.17
2019-05-25T20:57:36.791Z,63.44
2019-05-25T21:00:06.705Z,63.58
2019-05-25T21:02:35.861Z,63.70
2019-05-25T21:05:05.177Z,63.89
2019-05-25T21:07:34.361Z,64.08
2019-05-25T21:10:03.531Z,64.23
2019-05-25T21:12:32.669Z,64.24
2019-05-25T21:15:01.870Z,64.25
2019-05-25T21:17:30.987Z,64.35
2019-05-25T21:20:00.266Z,64.38
2019-05-25T21:22:29.371Z,64.52
2019-05-25T21:25:05.146Z,64.65
2019-05-25T21:27:29.409Z,64.91
2019-05-25T21:29:58.589Z,65.05
2019-05-25T21:32:27.753Z,65.00
2019-05-25T21:34:56.886Z,65.05
2019-05-25T21:37:26.126Z,65.10
2019-05-25T21:39:55.298Z,65.16
2019-05-25T21:42:24.515Z,65.23
2019-05-25T21:44:53.678Z,65.33
2019-05-25T21:47:22.852Z,65.44
2019-05-25T21:49:52.009Z,65.54
2019-05-25T21:52:21.200Z,65.63
2019-05-25T21:54:50.350Z,65.80
2019-05-25T21:57:19.499Z,65.92
2019-05-25T21:59:48.662Z,66.03
2019-05-25T22:02:17.795Z,66.21
2019-05-25T22:04:46.929Z,66.22
2019-05-25T22:07:16.054Z,66.21
2019-05-25T22:09:45.206Z,66.34
2019-05-25T22:12:14.363Z,66.49
2019-05-25T22:14:43.526Z,66.53
2019-05-25T22:17:12.664Z,66.68
2019-05-25T22:19:41.847Z,66.77
2019-05-25T22:22:10.985Z,66.80
2019-05-25T22:24:40.138Z,66.77
2019-05-25T22:27:09.264Z,66.89
2019-05-25T22:29:38.432Z,66.94
2019-05-25T22:32:07.612Z,66.95
2019-05-25T22:34:36.804Z,66.90
2019-05-25T22:37:05.943Z,67.11
2019-05-25T22:39:35.100Z,67.04
2019-05-25T22:42:04.402Z,67.04
2019-05-25T22:44:33.550Z,67.25
2019-05-25T22:47:02.727Z,67.32
2019-05-25T22:49:31.889Z,67.37
2019-05-25T22:52:01.040Z,67.55
2019-05-25T22:54:30.179Z,67.63
2019-05-25T22:56:59.340Z,67.69
2019-05-25T22:59:28.425Z,67.73
2019-05-25T23:01:57.566Z,67.77
2019-05-25T23:04:26.709Z,67.94
2019-05-25T23:06:58.195Z,68.00
2019-05-25T23:09:26.802Z,68.01
2019-05-25T23:11:55.955Z,68.04
2019-05-25T23:14:25.102Z,68.00
2019-05-25T23:16:54.280Z,67.96
2019-05-25T23:19:23.547Z,68.03
2019-05-25T23:21:52.680Z,68.12
2019-05-25T23:24:21.808Z,68.24
2019-05-25T23:26:50.916Z,68.11
2019-05-25T23:29:20.135Z,68.00
2019-05-25T23:31:49.306Z,68.08
2019-05-25T23:34:18.485Z,68.25
2019-05-25T23:36:47.670Z,68.45
2019-05-25T23:39:16.817Z,68.65
2019-05-25T23:41:45.984Z,68.80
2019-05-25T23:44:15.119Z,68.87
2019-05-25T23:46:44.316Z,68.93
2019-05-25T23:49:13.436Z,68.98
2019-05-25T23:51:42.582Z,68.99
2019-05-25T23:54:11.724Z,69.03
2019-05-25T23:56:40.853Z,69.10
2019-05-25T23:59:10.014Z,69.10
